sensor_id;sensor_type;location;lat;lon;timestamp;P1;durP1;ratioP1;P2;durP2;ratioP2
55065;SDS011;40964;42.114;24.220;2023-10-13T00:00:37;7.82;;;4.10;;
55065;SDS011;40964;42.114;24.220;2023-10-13T00:03:05;9.23;;;4.72;;
55065;SDS011;40964;42.114;24.220;2023-10-13T00:05:32;7.88;;;4.78;;
55065;SDS011;40964;42.114;24.220;2023-10-13T00:07:59;9.38;;;4.53;;
55065;SDS011;40964;42.114;24.220;2023-10-13T00:10:28;10.93;;;4.70;;
55065;SDS011;40964;42.114;24.220;2023-10-13T00:12:55;10.90;;;4.72;;
55065;SDS011;40964;42.114;24.220;2023-10-13T00:15:31;11.18;;;4.88;;
55065;SDS011;40964;42.114;24.220;2023-10-13T00:18:04;12.45;;;4.50;;
55065;SDS011;40964;42.114;24.220;2023-10-13T00:20:38;9.07;;;4.78;;
55065;SDS011;40964;42.114;24.220;2023-10-13T00:23:04;9.82;;;4.63;;
55065;SDS011;40964;42.114;24.220;2023-10-13T00:25:31;7.30;;;4.80;;
55065;SDS011;40964;42.114;24.220;2023-10-13T00:28:05;7.07;;;4.22;;
55065;SDS011;40964;42.114;24.220;2023-10-13T00:30:33;5.70;;;3.92;;
55065;SDS011;40964;42.114;24.220;2023-10-13T00:32:59;7.20;;;4.18;;
55065;SDS011;40964;42.114;24.220;2023-10-13T00:35:28;8.60;;;4.10;;
55065;SDS011;40964;42.114;24.220;2023-10-13T00:38:01;6.55;;;4.07;;
55065;SDS011;40964;42.114;24.220;2023-10-13T00:40:43;8.68;;;4.63;;
55065;SDS011;40964;42.114;24.220;2023-10-13T00:43:16;8.60;;;5.03;;
55065;SDS011;40964;42.114;24.220;2023-10-13T00:48:32;7.75;;;4.57;;
55065;SDS011;40964;42.114;24.220;2023-10-13T00:51:00;10.40;;;4.35;;
55065;SDS011;40964;42.114;24.220;2023-10-13T00:53:32;6.20;;;4.00;;
55065;SDS011;40964;42.114;24.220;2023-10-13T00:56:01;7.10;;;4.30;;
55065;SDS011;40964;42.114;24.220;2023-10-13T00:58:33;7.40;;;4.85;;
55065;SDS011;40964;42.114;24.220;2023-10-13T01:01:00;8.88;;;4.80;;
55065;SDS011;40964;42.114;24.220;2023-10-13T01:03:43;9.57;;;5.75;;
55065;SDS011;40964;42.114;24.220;2023-10-13T01:06:10;11.02;;;5.20;;
55065;SDS011;40964;42.114;24.220;2023-10-13T01:08:37;9.82;;;5.32;;
55065;SDS011;40964;42.114;24.220;2023-10-13T01:11:09;8.65;;;4.63;;
55065;SDS011;40964;42.114;24.220;2023-10-13T01:13:35;10.70;;;4.47;;
55065;SDS011;40964;42.114;24.220;2023-10-13T01:16:02;7.32;;;4.93;;
55065;SDS011;40964;42.114;24.220;2023-10-13T01:18:29;8.75;;;4.78;;
55065;SDS011;40964;42.114;24.220;2023-10-13T01:20:55;6.40;;;4.38;;
55065;SDS011;40964;42.114;24.220;2023-10-13T01:23:24;10.07;;;4.50;;
55065;SDS011;40964;42.114;24.220;2023-10-13T01:25:54;6.63;;;3.97;;
55065;SDS011;40964;42.114;24.220;2023-10-13T01:28:22;7.82;;;3.90;;
55065;SDS011;40964;42.114;24.220;2023-10-13T01:30:49;7.22;;;4.47;;
55065;SDS011;40964;42.114;24.220;2023-10-13T01:33:18;6.25;;;4.47;;
55065;SDS011;40964;42.114;24.220;2023-10-13T01:35:56;5.82;;;4.10;;
55065;SDS011;40964;42.114;24.220;2023-10-13T01:38:23;7.75;;;4.65;;
55065;SDS011;40964;42.114;24.220;2023-10-13T01:40:53;7.20;;;4.30;;
55065;SDS011;40964;42.114;24.220;2023-10-13T01:43:21;6.35;;;4.45;;
55065;SDS011;40964;42.114;24.220;2023-10-13T01:45:47;6.75;;;4.70;;
55065;SDS011;40964;42.114;24.220;2023-10-13T01:48:15;8.00;;;4.80;;
55065;SDS011;40964;42.114;24.220;2023-10-13T01:50:41;10.48;;;5.50;;
55065;SDS011;40964;42.114;24.220;2023-10-13T01:53:07;10.95;;;4.60;;
55065;SDS011;40964;42.114;24.220;2023-10-13T01:55:39;9.82;;;4.93;;
55065;SDS011;40964;42.114;24.220;2023-10-13T01:58:11;10.77;;;5.70;;
55065;SDS011;40964;42.114;24.220;2023-10-13T02:00:44;9.02;;;5.43;;
55065;SDS011;40964;42.114;24.220;2023-10-13T02:03:12;6.20;;;3.92;;
55065;SDS011;40964;42.114;24.220;2023-10-13T02:05:48;6.80;;;4.38;;
55065;SDS011;40964;42.114;24.220;2023-10-13T02:08:18;7.22;;;4.70;;
55065;SDS011;40964;42.114;24.220;2023-10-13T02:10:51;7.35;;;4.30;;
55065;SDS011;40964;42.114;24.220;2023-10-13T02:13:17;8.00;;;4.50;;
55065;SDS011;40964;42.114;24.220;2023-10-13T02:15:47;7.90;;;4.70;;
55065;SDS011;40964;42.114;24.220;2023-10-13T02:18:17;7.82;;;5.30;;
55065;SDS011;40964;42.114;24.220;2023-10-13T02:20:54;9.07;;;5.07;;
55065;SDS011;40964;42.114;24.220;2023-10-13T02:23:24;10.63;;;5.18;;
55065;SDS011;40964;42.114;24.220;2023-10-13T02:25:54;9.45;;;5.95;;
55065;SDS011;40964;42.114;24.220;2023-10-13T02:28:28;12.07;;;5.68;;
55065;SDS011;40964;42.114;24.220;2023-10-13T02:31:01;11.77;;;5.05;;
55065;SDS011;40964;42.114;24.220;2023-10-13T02:33:31;9.50;;;5.60;;
55065;SDS011;40964;42.114;24.220;2023-10-13T02:36:01;11.70;;;5.68;;
55065;SDS011;40964;42.114;24.220;2023-10-13T02:38:31;8.13;;;5.37;;
55065;SDS011;40964;42.114;24.220;2023-10-13T02:41:03;16.00;;;6.68;;
55065;SDS011;40964;42.114;24.220;2023-10-13T02:43:34;16.80;;;6.75;;
55065;SDS011;40964;42.114;24.220;2023-10-13T02:46:01;10.80;;;5.90;;
55065;SDS011;40964;42.114;24.220;2023-10-13T02:48:29;8.70;;;5.30;;
55065;SDS011;40964;42.114;24.220;2023-10-13T02:51:11;6.97;;;4.60;;
55065;SDS011;40964;42.114;24.220;2023-10-13T02:53:46;10.95;;;4.57;;
55065;SDS011;40964;42.114;24.220;2023-10-13T02:56:17;8.40;;;4.40;;
55065;SDS011;40964;42.114;24.220;2023-10-13T02:58:47;6.47;;;4.15;;
55065;SDS011;40964;42.114;24.220;2023-10-13T03:01:22;10.65;;;5.00;;
55065;SDS011;40964;42.114;24.220;2023-10-13T03:03:53;6.82;;;4.35;;
55065;SDS011;40964;42.114;24.220;2023-10-13T03:06:21;7.82;;;4.72;;
55065;SDS011;40964;42.114;24.220;2023-10-13T03:08:57;7.07;;;4.93;;
55065;SDS011;40964;42.114;24.220;2023-10-13T03:11:38;9.45;;;4.57;;
55065;SDS011;40964;42.114;24.220;2023-10-13T03:14:07;7.28;;;4.43;;
55065;SDS011;40964;42.114;24.220;2023-10-13T03:16:33;6.88;;;4.68;;
55065;SDS011;40964;42.114;24.220;2023-10-13T03:18:59;7.30;;;4.57;;
55065;SDS011;40964;42.114;24.220;2023-10-13T03:21:25;8.23;;;4.28;;
55065;SDS011;40964;42.114;24.220;2023-10-13T03:23:55;5.50;;;4.25;;
55065;SDS011;40964;42.114;24.220;2023-10-13T03:26:21;7.38;;;4.47;;
55065;SDS011;40964;42.114;24.220;2023-10-13T03:28:47;7.05;;;4.55;;
55065;SDS011;40964;42.114;24.220;2023-10-13T03:31:20;8.02;;;4.50;;
55065;SDS011;40964;42.114;24.220;2023-10-13T03:33:52;9.93;;;4.55;;
55065;SDS011;40964;42.114;24.220;2023-10-13T03:36:22;13.70;;;8.25;;
55065;SDS011;40964;42.114;24.220;2023-10-13T03:39:05;6.80;;;4.53;;
55065;SDS011;40964;42.114;24.220;2023-10-13T03:41:32;8.25;;;4.75;;
55065;SDS011;40964;42.114;24.220;2023-10-13T03:44:02;7.10;;;4.22;;
55065;SDS011;40964;42.114;24.220;2023-10-13T03:46:38;15.35;;;5.25;;
55065;SDS011;40964;42.114;24.220;2023-10-13T03:49:06;8.02;;;5.00;;
55065;SDS011;40964;42.114;24.220;2023-10-13T03:51:38;7.97;;;4.72;;
55065;SDS011;40964;42.114;24.220;2023-10-13T03:54:04;6.70;;;4.38;;
55065;SDS011;40964;42.114;24.220;2023-10-13T03:56:32;11.20;;;4.82;;
55065;SDS011;40964;42.114;24.220;2023-10-13T03:59:04;7.85;;;4.85;;
55065;SDS011;40964;42.114;24.220;2023-10-13T04:01:43;9.93;;;4.70;;
55065;SDS011;40964;42.114;24.220;2023-10-13T04:04:13;9.98;;;4.90;;
55065;SDS011;40964;42.114;24.220;2023-10-13T04:07:03;15.65;;;5.93;;
55065;SDS011;40964;42.114;24.220;2023-10-13T04:09:37;14.82;;;5.60;;
55065;SDS011;40964;42.114;24.220;2023-10-13T04:12:12;11.30;;;4.90;;
55065;SDS011;40964;42.114;24.220;2023-10-13T04:14:41;12.02;;;5.30;;
55065;SDS011;40964;42.114;24.220;2023-10-13T04:17:28;20.95;;;5.82;;
55065;SDS011;40964;42.114;24.220;2023-10-13T04:19:58;14.32;;;5.80;;
55065;SDS011;40964;42.114;24.220;2023-10-13T04:22:36;13.05;;;5.72;;
55065;SDS011;40964;42.114;24.220;2023-10-13T04:25:12;13.73;;;6.05;;
55065;SDS011;40964;42.114;24.220;2023-10-13T04:28:02;19.67;;;6.43;;
55065;SDS011;40964;42.114;24.220;2023-10-13T04:30:50;10.10;;;4.90;;
55065;SDS011;40964;42.114;24.220;2023-10-13T04:33:28;13.27;;;5.25;;
55065;SDS011;40964;42.114;24.220;2023-10-13T04:36:14;16.65;;;5.93;;
55065;SDS011;40964;42.114;24.220;2023-10-13T04:38:50;8.00;;;4.53;;
55065;SDS011;40964;42.114;24.220;2023-10-13T04:41:26;15.57;;;4.70;;
55065;SDS011;40964;42.114;24.220;2023-10-13T04:44:22;9.65;;;4.80;;
55065;SDS011;40964;42.114;24.220;2023-10-13T04:46:56;11.38;;;4.88;;
55065;SDS011;40964;42.114;24.220;2023-10-13T04:49:29;7.38;;;4.05;;
55065;SDS011;40964;42.114;24.220;2023-10-13T04:52:08;12.35;;;4.78;;
55065;SDS011;40964;42.114;24.220;2023-10-13T04:57:19;14.93;;;4.38;;
55065;SDS011;40964;42.114;24.220;2023-10-13T04:59:52;13.95;;;4.93;;
55065;SDS011;40964;42.114;24.220;2023-10-13T05:02:36;8.25;;;4.82;;
55065;SDS011;40964;42.114;24.220;2023-10-13T05:07:50;11.40;;;5.00;;
55065;SDS011;40964;42.114;24.220;2023-10-13T05:10:35;9.13;;;4.82;;
55065;SDS011;40964;42.114;24.220;2023-10-13T05:13:20;16.50;;;8.10;;
55065;SDS011;40964;42.114;24.220;2023-10-13T05:16:04;14.02;;;6.10;;
55065;SDS011;40964;42.114;24.220;2023-10-13T05:18:49;14.00;;;8.10;;
55065;SDS011;40964;42.114;24.220;2023-10-13T05:21:32;15.60;;;10.32;;
55065;SDS011;40964;42.114;24.220;2023-10-13T05:24:17;16.63;;;9.20;;
55065;SDS011;40964;42.114;24.220;2023-10-13T05:27:01;18.60;;;8.85;;
55065;SDS011;40964;42.114;24.220;2023-10-13T05:29:45;13.32;;;7.70;;
55065;SDS011;40964;42.114;24.220;2023-10-13T05:32:30;10.60;;;6.70;;
55065;SDS011;40964;42.114;24.220;2023-10-13T05:35:15;11.75;;;5.70;;
55065;SDS011;40964;42.114;24.220;2023-10-13T05:37:59;9.18;;;4.88;;
55065;SDS011;40964;42.114;24.220;2023-10-13T05:40:58;9.00;;;5.18;;
55065;SDS011;40964;42.114;24.220;2023-10-13T05:43:43;9.75;;;5.75;;
55065;SDS011;40964;42.114;24.220;2023-10-13T05:46:29;9.50;;;5.13;;
55065;SDS011;40964;42.114;24.220;2023-10-13T05:49:14;10.25;;;5.85;;
55065;SDS011;40964;42.114;24.220;2023-10-13T05:51:43;10.05;;;5.65;;
55065;SDS011;40964;42.114;24.220;2023-10-13T05:54:28;11.02;;;5.20;;
55065;SDS011;40964;42.114;24.220;2023-10-13T05:57:11;10.98;;;5.45;;
55065;SDS011;40964;42.114;24.220;2023-10-13T05:59:55;8.27;;;4.93;;
55065;SDS011;40964;42.114;24.220;2023-10-13T06:02:39;10.00;;;5.50;;
55065;SDS011;40964;42.114;24.220;2023-10-13T06:05:23;10.60;;;6.10;;
55065;SDS011;40964;42.114;24.220;2023-10-13T06:08:06;10.07;;;5.88;;
55065;SDS011;40964;42.114;24.220;2023-10-13T06:10:50;11.50;;;6.07;;
55065;SDS011;40964;42.114;24.220;2023-10-13T06:13:44;14.48;;;6.50;;
55065;SDS011;40964;42.114;24.220;2023-10-13T06:16:28;11.68;;;7.10;;
55065;SDS011;40964;42.114;24.220;2023-10-13T06:19:12;17.35;;;6.10;;
55065;SDS011;40964;42.114;24.220;2023-10-13T06:21:55;8.70;;;5.28;;
55065;SDS011;40964;42.114;24.220;2023-10-13T06:24:39;12.02;;;5.43;;
55065;SDS011;40964;42.114;24.220;2023-10-13T06:30:11;14.40;;;7.60;;
55065;SDS011;40964;42.114;24.220;2023-10-13T06:32:37;8.07;;;5.82;;
55065;SDS011;40964;42.114;24.220;2023-10-13T06:35:05;9.27;;;5.55;;
55065;SDS011;40964;42.114;24.220;2023-10-13T06:37:34;8.75;;;5.57;;
55065;SDS011;40964;42.114;24.220;2023-10-13T06:40:03;7.22;;;4.53;;
55065;SDS011;40964;42.114;24.220;2023-10-13T06:42:48;6.40;;;4.25;;
55065;SDS011;40964;42.114;24.220;2023-10-13T06:45:13;6.32;;;3.97;;
55065;SDS011;40964;42.114;24.220;2023-10-13T06:47:41;9.20;;;4.65;;
55065;SDS011;40964;42.114;24.220;2023-10-13T06:50:11;10.32;;;4.82;;
55065;SDS011;40964;42.114;24.220;2023-10-13T06:52:43;9.73;;;5.03;;
55065;SDS011;40964;42.114;24.220;2023-10-13T06:55:10;11.55;;;4.85;;
55065;SDS011;40964;42.114;24.220;2023-10-13T06:57:42;8.15;;;3.97;;
55065;SDS011;40964;42.114;24.220;2023-10-13T07:00:09;4.63;;;3.70;;
55065;SDS011;40964;42.114;24.220;2023-10-13T07:02:44;9.95;;;4.43;;
55065;SDS011;40964;42.114;24.220;2023-10-13T07:05:11;6.15;;;4.13;;
55065;SDS011;40964;42.114;24.220;2023-10-13T07:07:39;12.93;;;4.70;;
55065;SDS011;40964;42.114;24.220;2023-10-13T07:10:09;15.65;;;4.38;;
55065;SDS011;40964;42.114;24.220;2023-10-13T07:12:36;8.63;;;4.30;;
55065;SDS011;40964;42.114;24.220;2023-10-13T07:15:03;11.23;;;4.35;;
55065;SDS011;40964;42.114;24.220;2023-10-13T07:17:47;8.43;;;4.45;;
55065;SDS011;40964;42.114;24.220;2023-10-13T07:20:19;6.80;;;4.13;;
55065;SDS011;40964;42.114;24.220;2023-10-13T07:22:58;9.68;;;4.20;;
55065;SDS011;40964;42.114;24.220;2023-10-13T07:25:31;9.30;;;4.55;;
55065;SDS011;40964;42.114;24.220;2023-10-13T07:28:06;8.85;;;4.05;;
55065;SDS011;40964;42.114;24.220;2023-10-13T07:30:35;5.68;;;4.00;;
55065;SDS011;40964;42.114;24.220;2023-10-13T07:33:15;8.93;;;4.82;;
55065;SDS011;40964;42.114;24.220;2023-10-13T07:35:45;7.13;;;4.10;;
55065;SDS011;40964;42.114;24.220;2023-10-13T07:38:15;5.80;;;3.92;;
55065;SDS011;40964;42.114;24.220;2023-10-13T07:40:41;10.27;;;3.50;;
55065;SDS011;40964;42.114;24.220;2023-10-13T07:43:15;4.47;;;3.25;;
55065;SDS011;40964;42.114;24.220;2023-10-13T07:45:46;10.77;;;3.85;;
55065;SDS011;40964;42.114;24.220;2023-10-13T07:48:15;7.13;;;4.60;;
55065;SDS011;40964;42.114;24.220;2023-10-13T07:50:45;11.45;;;4.13;;
55065;SDS011;40964;42.114;24.220;2023-10-13T07:53:12;7.88;;;4.18;;
55065;SDS011;40964;42.114;24.220;2023-10-13T07:55:50;9.30;;;4.75;;
55065;SDS011;40964;42.114;24.220;2023-10-13T07:58:20;6.82;;;4.40;;
55065;SDS011;40964;42.114;24.220;2023-10-13T08:00:51;6.13;;;3.55;;
55065;SDS011;40964;42.114;24.220;2023-10-13T08:03:35;11.43;;;4.03;;
55065;SDS011;40964;42.114;24.220;2023-10-13T08:06:13;9.63;;;3.55;;
55065;SDS011;40964;42.114;24.220;2023-10-13T08:08:40;4.32;;;3.00;;
55065;SDS011;40964;42.114;24.220;2023-10-13T08:11:08;5.82;;;3.13;;
55065;SDS011;40964;42.114;24.220;2023-10-13T08:13:53;7.15;;;3.50;;
55065;SDS011;40964;42.114;24.220;2023-10-13T08:16:23;4.25;;;3.00;;
55065;SDS011;40964;42.114;24.220;2023-10-13T08:18:55;16.58;;;3.70;;
55065;SDS011;40964;42.114;24.220;2023-10-13T08:21:20;4.38;;;3.22;;
55065;SDS011;40964;42.114;24.220;2023-10-13T08:23:50;6.20;;;3.47;;
55065;SDS011;40964;42.114;24.220;2023-10-13T08:26:18;4.78;;;3.55;;
55065;SDS011;40964;42.114;24.220;2023-10-13T08:29:03;6.13;;;3.40;;
55065;SDS011;40964;42.114;24.220;2023-10-13T08:31:48;5.63;;;3.40;;
55065;SDS011;40964;42.114;24.220;2023-10-13T08:34:34;5.40;;;3.80;;
55065;SDS011;40964;42.114;24.220;2023-10-13T08:37:27;5.05;;;2.83;;
55065;SDS011;40964;42.114;24.220;2023-10-13T08:39:58;6.03;;;3.38;;
55065;SDS011;40964;42.114;24.220;2023-10-13T08:42:28;5.32;;;3.20;;
55065;SDS011;40964;42.114;24.220;2023-10-13T08:45:17;5.32;;;3.35;;
55065;SDS011;40964;42.114;24.220;2023-10-13T08:47:48;4.20;;;3.13;;
55065;SDS011;40964;42.114;24.220;2023-10-13T08:50:47;10.60;;;3.45;;
55065;SDS011;40964;42.114;24.220;2023-10-13T08:53:29;5.00;;;2.95;;
55065;SDS011;40964;42.114;24.220;2023-10-13T08:55:59;10.07;;;3.17;;
55065;SDS011;40964;42.114;24.220;2023-10-13T08:58:35;5.70;;;3.22;;
55065;SDS011;40964;42.114;24.220;2023-10-13T09:01:26;9.55;;;3.88;;
55065;SDS011;40964;42.114;24.220;2023-10-13T09:04:17;7.15;;;3.30;;
55065;SDS011;40964;42.114;24.220;2023-10-13T09:14:42;4.32;;;3.28;;
55065;SDS011;40964;42.114;24.220;2023-10-13T09:17:22;6.95;;;3.40;;
55065;SDS011;40964;42.114;24.220;2023-10-13T09:20:05;7.47;;;3.47;;
55065;SDS011;40964;42.114;24.220;2023-10-13T09:22:49;7.72;;;2.92;;
55065;SDS011;40964;42.114;24.220;2023-10-13T09:25:28;6.22;;;3.47;;
55065;SDS011;40964;42.114;24.220;2023-10-13T09:28:10;4.63;;;2.97;;
55065;SDS011;40964;42.114;24.220;2023-10-13T09:30:57;4.18;;;3.00;;
55065;SDS011;40964;42.114;24.220;2023-10-13T09:33:23;4.78;;;3.10;;
55065;SDS011;40964;42.114;24.220;2023-10-13T09:36:05;5.53;;;2.83;;
55065;SDS011;40964;42.114;24.220;2023-10-13T09:38:33;8.15;;;3.38;;
55065;SDS011;40964;42.114;24.220;2023-10-13T09:40:59;5.93;;;3.08;;
55065;SDS011;40964;42.114;24.220;2023-10-13T09:43:34;5.38;;;3.22;;
55065;SDS011;40964;42.114;24.220;2023-10-13T09:46:02;5.88;;;3.08;;
55065;SDS011;40964;42.114;24.220;2023-10-13T09:48:33;8.05;;;3.50;;
55065;SDS011;40964;42.114;24.220;2023-10-13T09:51:04;5.20;;;3.15;;
55065;SDS011;40964;42.114;24.220;2023-10-13T09:53:34;5.85;;;3.10;;
55065;SDS011;40964;42.114;24.220;2023-10-13T09:56:10;7.18;;;3.35;;
55065;SDS011;40964;42.114;24.220;2023-10-13T09:58:50;5.70;;;3.30;;
55065;SDS011;40964;42.114;24.220;2023-10-13T10:01:22;5.82;;;3.20;;
55065;SDS011;40964;42.114;24.220;2023-10-13T10:04:08;5.40;;;3.05;;
55065;SDS011;40964;42.114;24.220;2023-10-13T10:06:58;3.97;;;3.25;;
55065;SDS011;40964;42.114;24.220;2023-10-13T10:18:17;5.88;;;3.72;;
55065;SDS011;40964;42.114;24.220;2023-10-13T10:20:44;6.97;;;3.20;;
55065;SDS011;40964;42.114;24.220;2023-10-13T10:23:23;5.45;;;3.50;;
55065;SDS011;40964;42.114;24.220;2023-10-13T10:25:49;7.18;;;3.83;;
55065;SDS011;40964;42.114;24.220;2023-10-13T10:28:16;5.18;;;2.83;;
55065;SDS011;40964;42.114;24.220;2023-10-13T10:30:44;8.13;;;3.10;;
55065;SDS011;40964;42.114;24.220;2023-10-13T10:33:10;9.25;;;3.35;;
55065;SDS011;40964;42.114;24.220;2023-10-13T10:35:41;5.97;;;2.88;;
55065;SDS011;40964;42.114;24.220;2023-10-13T10:40:49;7.10;;;3.20;;
55065;SDS011;40964;42.114;24.220;2023-10-13T10:43:22;7.25;;;3.47;;
55065;SDS011;40964;42.114;24.220;2023-10-13T10:46:14;4.40;;;2.80;;
55065;SDS011;40964;42.114;24.220;2023-10-13T10:48:43;4.55;;;3.03;;
55065;SDS011;40964;42.114;24.220;2023-10-13T10:51:10;5.43;;;3.20;;
55065;SDS011;40964;42.114;24.220;2023-10-13T10:53:46;6.95;;;3.75;;
55065;SDS011;40964;42.114;24.220;2023-10-13T10:56:14;9.63;;;3.40;;
55065;SDS011;40964;42.114;24.220;2023-10-13T10:58:59;6.90;;;3.45;;
55065;SDS011;40964;42.114;24.220;2023-10-13T11:01:26;5.22;;;3.25;;
55065;SDS011;40964;42.114;24.220;2023-10-13T11:04:12;4.95;;;3.30;;
55065;SDS011;40964;42.114;24.220;2023-10-13T11:06:53;5.50;;;3.42;;
55065;SDS011;40964;42.114;24.220;2023-10-13T11:09:38;9.60;;;3.30;;
55065;SDS011;40964;42.114;24.220;2023-10-13T11:12:11;7.80;;;3.58;;
55065;SDS011;40964;42.114;24.220;2023-10-13T11:14:42;7.05;;;3.25;;
55065;SDS011;40964;42.114;24.220;2023-10-13T11:17:23;5.68;;;3.03;;
55065;SDS011;40964;42.114;24.220;2023-10-13T11:20:07;9.93;;;3.33;;
55065;SDS011;40964;42.114;24.220;2023-10-13T11:22:41;5.85;;;3.55;;
55065;SDS011;40964;42.114;24.220;2023-10-13T11:25:19;6.95;;;3.45;;
55065;SDS011;40964;42.114;24.220;2023-10-13T11:28:12;6.57;;;3.78;;
55065;SDS011;40964;42.114;24.220;2023-10-13T11:30:45;4.25;;;3.10;;
55065;SDS011;40964;42.114;24.220;2023-10-13T11:33:15;5.03;;;3.28;;
55065;SDS011;40964;42.114;24.220;2023-10-13T11:35:49;5.60;;;3.30;;
55065;SDS011;40964;42.114;24.220;2023-10-13T11:38:28;5.15;;;3.33;;
55065;SDS011;40964;42.114;24.220;2023-10-13T11:41:07;8.65;;;3.08;;
55065;SDS011;40964;42.114;24.220;2023-10-13T11:43:39;5.95;;;3.22;;
55065;SDS011;40964;42.114;24.220;2023-10-13T11:46:09;6.60;;;2.92;;
55065;SDS011;40964;42.114;24.220;2023-10-13T11:48:40;4.75;;;2.75;;
55065;SDS011;40964;42.114;24.220;2023-10-13T11:51:12;8.27;;;3.47;;
55065;SDS011;40964;42.114;24.220;2023-10-13T11:53:57;5.50;;;3.60;;
55065;SDS011;40964;42.114;24.220;2023-10-13T11:56:23;5.68;;;3.33;;
55065;SDS011;40964;42.114;24.220;2023-10-13T11:58:50;7.35;;;4.00;;
55065;SDS011;40964;42.114;24.220;2023-10-13T12:01:16;6.40;;;3.30;;
55065;SDS011;40964;42.114;24.220;2023-10-13T12:04:08;3.40;;;2.70;;
55065;SDS011;40964;42.114;24.220;2023-10-13T12:06:52;4.32;;;3.30;;
55065;SDS011;40964;42.114;24.220;2023-10-13T12:09:37;5.47;;;3.45;;
55065;SDS011;40964;42.114;24.220;2023-10-13T12:12:24;7.38;;;3.90;;
55065;SDS011;40964;42.114;24.220;2023-10-13T12:14:51;7.30;;;3.83;;
55065;SDS011;40964;42.114;24.220;2023-10-13T12:17:27;6.23;;;3.60;;
55065;SDS011;40964;42.114;24.220;2023-10-13T12:19:57;5.57;;;3.47;;
55065;SDS011;40964;42.114;24.220;2023-10-13T12:22:24;5.47;;;3.50;;
55065;SDS011;40964;42.114;24.220;2023-10-13T12:24:54;5.00;;;3.40;;
55065;SDS011;40964;42.114;24.220;2023-10-13T12:27:21;3.90;;;2.85;;
55065;SDS011;40964;42.114;24.220;2023-10-13T12:30:00;5.60;;;2.95;;
55065;SDS011;40964;42.114;24.220;2023-10-13T12:32:33;6.87;;;2.63;;
55065;SDS011;40964;42.114;24.220;2023-10-13T12:34:59;4.38;;;2.83;;
55065;SDS011;40964;42.114;24.220;2023-10-13T12:37:42;6.07;;;2.80;;
55065;SDS011;40964;42.114;24.220;2023-10-13T12:40:14;6.00;;;2.60;;
55065;SDS011;40964;42.114;24.220;2023-10-13T12:43:06;3.70;;;2.03;;
55065;SDS011;40964;42.114;24.220;2023-10-13T12:45:50;9.00;;;2.40;;
55065;SDS011;40964;42.114;24.220;2023-10-13T12:48:35;3.95;;;2.33;;
55065;SDS011;40964;42.114;24.220;2023-10-13T12:51:21;4.00;;;2.40;;
55065;SDS011;40964;42.114;24.220;2023-10-13T12:53:56;5.03;;;2.40;;
55065;SDS011;40964;42.114;24.220;2023-10-13T12:56:30;3.40;;;2.72;;
55065;SDS011;40964;42.114;24.220;2023-10-13T12:58:56;12.05;;;2.85;;
55065;SDS011;40964;42.114;24.220;2023-10-13T13:01:22;3.97;;;2.78;;
55065;SDS011;40964;42.114;24.220;2023-10-13T13:03:58;5.07;;;2.45;;
55065;SDS011;40964;42.114;24.220;2023-10-13T13:06:24;2.65;;;2.30;;
55065;SDS011;40964;42.114;24.220;2023-10-13T13:09:00;4.45;;;2.15;;
55065;SDS011;40964;42.114;24.220;2023-10-13T13:11:26;4.50;;;2.30;;
55065;SDS011;40964;42.114;24.220;2023-10-13T13:13:55;4.25;;;2.30;;
55065;SDS011;40964;42.114;24.220;2023-10-13T13:16:20;5.32;;;2.45;;
55065;SDS011;40964;42.114;24.220;2023-10-13T13:18:52;3.83;;;2.50;;
55065;SDS011;40964;42.114;24.220;2023-10-13T13:21:20;6.88;;;2.10;;
55065;SDS011;40964;42.114;24.220;2023-10-13T13:23:51;2.10;;;1.90;;
55065;SDS011;40964;42.114;24.220;2023-10-13T13:26:20;3.60;;;2.13;;
55065;SDS011;40964;42.114;24.220;2023-10-13T13:28:47;4.43;;;2.10;;
55065;SDS011;40964;42.114;24.220;2023-10-13T13:31:17;3.05;;;2.05;;
55065;SDS011;40964;42.114;24.220;2023-10-13T13:33:43;2.42;;;1.90;;
55065;SDS011;40964;42.114;24.220;2023-10-13T13:36:11;3.40;;;1.90;;
55065;SDS011;40964;42.114;24.220;2023-10-13T13:38:44;2.58;;;1.95;;
55065;SDS011;40964;42.114;24.220;2023-10-13T13:41:19;4.47;;;2.28;;
55065;SDS011;40964;42.114;24.220;2023-10-13T13:43:49;2.67;;;2.05;;
55065;SDS011;40964;42.114;24.220;2023-10-13T13:46:15;2.47;;;2.10;;
55065;SDS011;40964;42.114;24.220;2023-10-13T13:48:52;4.75;;;2.35;;
55065;SDS011;40964;42.114;24.220;2023-10-13T13:51:24;3.80;;;2.10;;
55065;SDS011;40964;42.114;24.220;2023-10-13T13:53:54;4.13;;;2.38;;
55065;SDS011;40964;42.114;24.220;2023-10-13T13:56:20;7.63;;;2.95;;
55065;SDS011;40964;42.114;24.220;2023-10-13T13:58:47;6.82;;;2.72;;
55065;SDS011;40964;42.114;24.220;2023-10-13T14:01:13;5.88;;;2.38;;
55065;SDS011;40964;42.114;24.220;2023-10-13T14:03:44;5.47;;;2.08;;
55065;SDS011;40964;42.114;24.220;2023-10-13T14:06:14;2.55;;;1.98;;
55065;SDS011;40964;42.114;24.220;2023-10-13T14:08:46;4.57;;;2.20;;
55065;SDS011;40964;42.114;24.220;2023-10-13T14:11:19;8.07;;;2.90;;
55065;SDS011;40964;42.114;24.220;2023-10-13T14:14:08;6.07;;;2.30;;
55065;SDS011;40964;42.114;24.220;2023-10-13T14:16:54;8.70;;;2.60;;
55065;SDS011;40964;42.114;24.220;2023-10-13T14:19:28;4.30;;;2.40;;
55065;SDS011;40964;42.114;24.220;2023-10-13T14:21:57;5.55;;;2.33;;
55065;SDS011;40964;42.114;24.220;2023-10-13T14:24:24;6.78;;;3.00;;
55065;SDS011;40964;42.114;24.220;2023-10-13T14:26:56;6.40;;;3.25;;
55065;SDS011;40964;42.114;24.220;2023-10-13T14:29:37;7.57;;;2.67;;
55065;SDS011;40964;42.114;24.220;2023-10-13T14:32:08;6.43;;;3.83;;
55065;SDS011;40964;42.114;24.220;2023-10-13T14:34:41;8.80;;;3.72;;
55065;SDS011;40964;42.114;24.220;2023-10-13T14:37:07;6.95;;;2.33;;
55065;SDS011;40964;42.114;24.220;2023-10-13T14:39:34;6.57;;;2.58;;
55065;SDS011;40964;42.114;24.220;2023-10-13T14:42:03;5.20;;;2.60;;
55065;SDS011;40964;42.114;24.220;2023-10-13T14:44:33;3.75;;;2.53;;
55065;SDS011;40964;42.114;24.220;2023-10-13T14:47:03;5.10;;;2.75;;
55065;SDS011;40964;42.114;24.220;2023-10-13T14:49:30;5.57;;;3.00;;
55065;SDS011;40964;42.114;24.220;2023-10-13T14:51:56;5.40;;;2.40;;
55065;SDS011;40964;42.114;24.220;2023-10-13T14:54:24;3.58;;;2.45;;
55065;SDS011;40964;42.114;24.220;2023-10-13T14:57:02;4.65;;;2.40;;
55065;SDS011;40964;42.114;24.220;2023-10-13T14:59:28;4.13;;;2.03;;
55065;SDS011;40964;42.114;24.220;2023-10-13T15:02:03;4.82;;;2.80;;
55065;SDS011;40964;42.114;24.220;2023-10-13T15:04:29;9.05;;;2.40;;
55065;SDS011;40964;42.114;24.220;2023-10-13T15:06:58;6.45;;;2.35;;
55065;SDS011;40964;42.114;24.220;2023-10-13T15:09:27;3.50;;;2.05;;
55065;SDS011;40964;42.114;24.220;2023-10-13T15:11:53;3.60;;;2.15;;
55065;SDS011;40964;42.114;24.220;2023-10-13T15:14:18;2.70;;;2.05;;
55065;SDS011;40964;42.114;24.220;2023-10-13T15:16:45;1.77;;;1.65;;
55065;SDS011;40964;42.114;24.220;2023-10-13T15:19:13;4.93;;;2.08;;
55065;SDS011;40964;42.114;24.220;2023-10-13T15:21:38;6.72;;;2.55;;
55065;SDS011;40964;42.114;24.220;2023-10-13T15:24:06;3.13;;;1.80;;
55065;SDS011;40964;42.114;24.220;2023-10-13T15:26:50;3.38;;;1.63;;
55065;SDS011;40964;42.114;24.220;2023-10-13T15:29:22;4.03;;;1.40;;
55065;SDS011;40964;42.114;24.220;2023-10-13T15:31:51;1.73;;;1.35;;
55065;SDS011;40964;42.114;24.220;2023-10-13T15:34:23;8.32;;;1.50;;
55065;SDS011;40964;42.114;24.220;2023-10-13T15:36:51;4.03;;;1.40;;
55065;SDS011;40964;42.114;24.220;2023-10-13T15:39:17;3.15;;;1.58;;